Time;durP1;ratioP1;P1;durP2;ratioP2;P2;SDS_P1;SDS_P2;PMS_P1;PMS_P2;Temp;Humidity;BMP_temperature;BMP_pressure;BME280_temperature;BME280_humidity;BME280_pressure;Samples;Min_cycle;Max_cycle;Signal;HPM_P1;HPM_P2
2021/12/19 00:00:28;;;;;;;46.97;26.40;;;7.90;99.90;;;;;;5034977;28;20174;-71
2021/12/19 00:08:41;;;;;;;38.57;21.63;;;8.10;99.90;;;;;;5034721;28;20421;-71
2021/12/19 00:11:06;;;;;;;44.43;23.37;;;8.20;99.90;;;;;;5036055;28;20386;-71
2021/12/19 00:13:32;;;;;;;44.60;24.17;;;8.10;99.90;;;;;;5036532;28;20440;-71
2021/12/19 00:15:58;;;;;;;45.17;24.30;;;8.20;99.90;;;;;;5036435;28;20175;-71
2021/12/19 00:18:23;;;;;;;43.00;23.67;;;8.20;99.90;;;;;;5036309;28;20173;-73
2021/12/19 00:20:49;;;;;;;40.23;22.80;;;8.20;99.90;;;;;;5036243;28;20192;-71
2021/12/19 00:23:15;;;;;;;41.43;22.93;;;8.20;99.90;;;;;;5035765;28;20222;-72
2021/12/19 00:25:42;;;;;;;42.47;23.73;;;8.20;99.90;;;;;;5036060;28;20490;-71
2021/12/19 00:28:07;;;;;;;43.03;22.83;;;8.30;99.90;;;;;;5036526;28;20479;-71
2021/12/19 00:30:33;;;;;;;40.57;22.37;;;8.30;99.90;;;;;;5036210;28;20890;-71
2021/12/19 00:32:59;;;;;;;44.53;22.70;;;8.30;99.90;;;;;;5036350;28;20195;-72
2021/12/19 00:35:24;;;;;;;39.17;21.60;;;8.40;99.90;;;;;;5036219;28;20254;-71
2021/12/19 00:37:51;;;;;;;44.13;22.20;;;8.40;99.90;;;;;;5035704;28;20179;-71
2021/12/19 00:40:16;;;;;;;36.50;22.20;;;8.30;99.90;;;;;;5037410;28;20635;-71
2021/12/19 00:42:42;;;;;;;37.60;21.67;;;8.40;99.90;;;;;;5035734;28;20511;-72
2021/12/19 00:45:27;;;;;;;35.90;19.97;;;8.40;99.90;;;;;;5037276;28;20189;-71
2021/12/19 00:47:53;;;;;;;47.83;21.30;;;8.40;99.90;;;;;;5036872;28;20386;-71
2021/12/19 00:50:19;;;;;;;38.30;22.70;;;8.40;99.90;;;;;;5037929;28;20435;-72
2021/12/19 00:52:46;;;;;;;35.23;20.23;;;8.40;99.90;;;;;;5037143;28;20541;-72
2021/12/19 00:55:19;;;;;;;37.80;21.37;;;8.30;99.90;;;;;;5037007;28;20409;-72
2021/12/19 00:57:46;;;;;;;35.17;21.20;;;8.40;99.90;;;;;;5022603;28;20836;-72
2021/12/19 01:00:14;;;;;;;35.43;20.63;;;8.50;99.90;;;;;;5017520;28;20418;-72
2021/12/19 01:02:40;;;;;;;35.10;20.30;;;8.40;99.90;;;;;;5031995;28;20496;-72
2021/12/19 01:05:07;;;;;;;36.83;20.37;;;8.20;99.90;;;;;;5036300;28;20777;-72
2021/12/19 01:07:32;;;;;;;40.17;22.17;;;8.10;99.90;;;;;;5036358;28;20417;-72
2021/12/19 01:09:58;;;;;;;38.67;22.27;;;8.00;99.90;;;;;;5038858;28;20409;-71
2021/12/19 01:12:25;;;;;;;39.10;21.73;;;7.90;99.90;;;;;;5047660;28;20171;-71
2021/12/19 01:14:51;;;;;;;40.10;21.17;;;8.00;99.90;;;;;;5034011;28;20477;-72
2021/12/19 01:17:17;;;;;;;46.27;22.60;;;8.10;99.90;;;;;;5026988;28;20425;-71
2021/12/19 01:19:45;;;;;;;41.20;21.80;;;8.10;99.90;;;;;;5026830;28;20414;-70
2021/12/19 01:22:11;;;;;;;38.37;19.20;;;8.10;99.90;;;;;;5021742;28;20171;-71
2021/12/19 01:24:36;;;;;;;38.60;20.47;;;8.20;99.90;;;;;;5018916;28;20438;-71
2021/12/19 01:27:02;;;;;;;31.73;17.73;;;8.30;99.90;;;;;;5017802;28;20796;-71
2021/12/19 01:29:28;;;;;;;29.70;16.33;;;8.10;99.90;;;;;;5016715;28;20637;-72
2021/12/19 01:31:54;;;;;;;32.90;18.03;;;8.00;99.90;;;;;;5027585;28;20414;-71
2021/12/19 01:34:19;;;;;;;31.90;16.53;;;8.00;99.90;;;;;;5035535;28;20437;-71
2021/12/19 01:36:45;;;;;;;33.60;18.50;;;7.80;99.90;;;;;;5021557;28;20195;-71
2021/12/19 01:39:12;;;;;;;33.53;17.60;;;7.70;99.90;;;;;;5015378;28;20195;-71
2021/12/19 01:41:50;;;;;;;33.60;18.87;;;7.70;99.90;;;;;;5017049;28;20616;-71
2021/12/19 01:44:16;;;;;;;30.97;18.17;;;7.70;99.90;;;;;;5016271;28;20492;-72
2021/12/19 01:46:44;;;;;;;35.53;23.20;;;7.70;99.90;;;;;;5014468;28;20406;-72
2021/12/19 01:49:11;;;;;;;38.57;20.40;;;7.60;99.90;;;;;;5027189;28;20421;-72
2021/12/19 01:51:37;;;;;;;40.40;20.20;;;7.70;99.90;;;;;;5035219;28;20413;-72
2021/12/19 01:54:03;;;;;;;39.27;21.73;;;7.60;99.90;;;;;;5034830;28;20433;-72
2021/12/19 01:56:28;;;;;;;37.47;20.97;;;7.60;99.90;;;;;;5017223;28;20426;-72
2021/12/19 01:58:54;;;;;;;41.30;22.60;;;7.60;99.90;;;;;;5033903;28;20414;-72
2021/12/19 02:01:20;;;;;;;42.17;24.60;;;7.60;99.90;;;;;;5034906;28;20175;-72
2021/12/19 02:03:45;;;;;;;38.03;20.80;;;7.60;99.90;;;;;;5036342;28;20230;-71
2021/12/19 02:06:11;;;;;;;40.63;23.60;;;7.40;99.90;;;;;;5024452;28;20184;-72
2021/12/19 02:08:36;;;;;;;52.63;25.63;;;7.40;99.90;;;;;;5016329;28;20175;-72
2021/12/19 02:11:02;;;;;;;42.83;23.90;;;7.40;99.90;;;;;;5015492;28;20796;-72
2021/12/19 02:13:28;;;;;;;47.83;24.63;;;7.50;99.90;;;;;;5014989;28;20246;-72
2021/12/19 02:15:53;;;;;;;46.53;23.80;;;7.60;99.90;;;;;;5014748;28;20182;-72
2021/12/19 02:18:24;;;;;;;54.47;26.43;;;7.60;99.90;;;;;;5015197;28;20422;-72
2021/12/19 02:20:52;;;;;;;42.33;22.23;;;7.60;99.90;;;;;;5024394;28;20204;-71
2021/12/19 02:23:20;;;;;;;38.53;22.57;;;7.70;99.90;;;;;;5016924;28;20558;-71
2021/12/19 02:25:46;;;;;;;42.20;22.07;;;7.90;99.90;;;;;;5034415;28;20833;-73
2021/12/19 02:28:12;;;;;;;44.90;22.50;;;8.00;99.90;;;;;;5032551;28;20429;-71
2021/12/19 02:30:38;;;;;;;42.13;23.50;;;8.00;99.90;;;;;;5034688;28;20436;-72
2021/12/19 02:33:15;;;;;;;40.27;22.73;;;8.00;99.90;;;;;;5035016;28;20288;-72
2021/12/19 02:35:45;;;;;;;43.33;22.40;;;8.10;99.90;;;;;;5029417;28;20520;-72
2021/12/19 02:49:19;;;;;;;39.87;21.30;;;7.60;99.90;;;;;;5014749;28;20394;-71
2021/12/19 02:51:45;;;;;;;32.40;19.73;;;7.70;99.90;;;;;;5014900;28;20415;-71
2021/12/19 02:54:10;;;;;;;36.63;19.60;;;7.50;99.90;;;;;;5014236;28;20431;-71
2021/12/19 02:56:36;;;;;;;37.07;21.10;;;7.60;99.90;;;;;;5029718;28;20468;-71
2021/12/19 02:59:02;;;;;;;39.07;20.70;;;7.50;99.90;;;;;;5034165;28;20251;-71
2021/12/19 03:01:27;;;;;;;35.43;19.57;;;7.50;99.90;;;;;;5030166;28;20250;-71
2021/12/19 03:03:53;;;;;;;34.27;19.40;;;7.40;99.90;;;;;;5008521;28;20207;-71
2021/12/19 03:06:19;;;;;;;40.60;22.63;;;7.30;99.90;;;;;;5032364;28;20175;-71
2021/12/19 03:08:48;;;;;;;38.37;23.20;;;7.30;99.90;;;;;;5034576;28;20954;-71
2021/12/19 03:19:21;;;;;;;40.07;22.90;;;7.30;99.90;;;;;;5017714;28;20413;-71
2021/12/19 03:21:47;;;;;;;43.13;21.90;;;7.30;99.90;;;;;;5017403;28;20833;-71
2021/12/19 03:24:13;;;;;;;38.17;22.20;;;7.30;99.90;;;;;;5017754;28;20211;-71
2021/12/19 03:26:38;;;;;;;41.80;23.40;;;7.30;99.90;;;;;;5016685;28;20406;-71
2021/12/19 03:29:04;;;;;;;49.13;24.87;;;7.30;99.90;;;;;;5017430;28;20179;-71
2021/12/19 03:31:30;;;;;;;43.17;24.10;;;7.40;99.90;;;;;;5019023;28;20188;-71
2021/12/19 03:33:56;;;;;;;42.83;23.97;;;7.40;99.90;;;;;;5017236;28;20383;-71
2021/12/19 03:36:21;;;;;;;43.50;24.43;;;7.40;99.90;;;;;;5016567;28;20490;-71
2021/12/19 03:38:48;;;;;;;43.00;23.73;;;7.30;99.90;;;;;;5016343;28;20191;-71
2021/12/19 03:41:19;;;;;;;45.20;24.40;;;7.20;99.90;;;;;;5017178;28;20171;-71
2021/12/19 03:43:45;;;;;;;40.83;23.83;;;7.20;99.90;;;;;;5017633;28;20492;-71
2021/12/19 03:46:11;;;;;;;43.83;25.50;;;7.20;99.90;;;;;;5016714;28;20406;-71
2021/12/19 03:48:37;;;;;;;45.57;25.30;;;7.20;99.90;;;;;;5028995;28;20445;-71
2021/12/19 03:51:03;;;;;;;47.17;25.07;;;7.20;99.90;;;;;;5042065;28;20410;-71
2021/12/19 03:53:28;;;;;;;39.77;23.97;;;7.20;99.90;;;;;;5050944;28;20190;-71
2021/12/19 03:55:54;;;;;;;41.87;24.73;;;7.10;99.90;;;;;;5051522;28;20413;-71
2021/12/19 03:58:20;;;;;;;37.17;22.67;;;7.10;99.90;;;;;;5041283;28;20612;-71
2021/12/19 04:00:47;;;;;;;43.90;24.57;;;7.10;99.90;;;;;;5038375;28;20238;-71
2021/12/19 04:03:19;;;;;;;42.67;23.20;;;7.10;99.90;;;;;;5037712;28;20473;-71
2021/12/19 04:05:48;;;;;;;44.33;24.00;;;7.10;99.90;;;;;;5017977;28;20425;-71
2021/12/19 04:08:16;;;;;;;43.50;25.63;;;7.10;99.90;;;;;;5036472;28;20413;-71
2021/12/19 04:10:42;;;;;;;43.37;23.83;;;7.10;99.90;;;;;;5036917;28;20413;-71
2021/12/19 04:13:07;;;;;;;41.73;23.77;;;7.20;99.90;;;;;;5037281;28;20479;-71
2021/12/19 04:15:34;;;;;;;38.97;24.27;;;7.10;99.90;;;;;;5035671;28;20413;-71
2021/12/19 04:18:00;;;;;;;42.77;23.73;;;7.10;99.90;;;;;;5036588;28;20182;-71
2021/12/19 04:20:25;;;;;;;43.80;23.80;;;7.10;99.90;;;;;;5036236;28;20418;-71
2021/12/19 04:22:52;;;;;;;43.23;23.73;;;7.30;99.90;;;;;;5034755;28;20206;-71
2021/12/19 04:25:18;;;;;;;37.20;23.13;;;7.30;99.90;;;;;;5026456;23;20712;-68
2021/12/19 04:27:45;;;;;;;41.87;22.57;;;7.30;99.90;;;;;;4993986;28;20400;-67
2021/12/19 04:30:15;;;;;;;42.90;22.93;;;7.30;99.90;;;;;;4994011;28;21174;-67
2021/12/19 04:32:44;;;;;;;44.70;22.23;;;7.30;99.90;;;;;;4994450;28;20388;-68
2021/12/19 04:35:11;;;;;;;41.40;22.60;;;7.30;99.90;;;;;;4994385;28;20432;-68
2021/12/19 04:38:16;;;;;;;46.57;25.43;;;7.30;99.90;;;;;;4993341;28;20403;-68
2021/12/19 04:40:39;;;;;;;44.53;23.80;;;7.30;99.90;;;;;;4993387;28;20555;-68
2021/12/19 04:52:24;;;;;;;43.10;24.13;;;7.60;99.90;;;;;;4993313;28;20482;-67
2021/12/19 04:57:06;;;;;;;46.10;24.07;;;7.80;99.90;;;;;;4993592;28;20380;-68
2021/12/19 04:59:52;;;;;;;35.23;20.40;;;7.70;99.90;;;;;;4992189;28;20420;-68
2021/12/19 05:16:13;;;;;;;35.43;20.63;;;7.50;99.90;;;;;;4971734;28;20467;-68
2021/12/19 05:18:40;;;;;;;40.57;21.77;;;7.40;99.90;;;;;;4971919;28;20486;-68
2021/12/19 05:21:21;;;;;;;40.40;21.30;;;7.40;99.90;;;;;;4971820;28;20480;-68
2021/12/19 05:26:24;;;;;;;38.00;20.13;;;7.60;99.90;;;;;;4972340;28;20443;-68
2021/12/19 05:28:52;;;;;;;42.57;21.90;;;7.50;99.90;;;;;;4972179;28;20439;-68
2021/12/19 05:31:19;;;;;;;41.07;22.30;;;7.60;99.90;;;;;;4955321;28;20409;-68
2021/12/19 05:33:46;;;;;;;48.13;23.97;;;7.50;99.90;;;;;;4970491;28;20439;-67
2021/12/19 05:46:59;;;;;;;34.63;20.23;;;7.40;99.90;;;;;;4992569;28;20502;-68
2021/12/19 05:49:25;;;;;;;40.90;21.37;;;7.50;99.90;;;;;;4991666;28;20451;-68
2021/12/19 05:51:51;;;;;;;32.37;20.23;;;7.40;99.90;;;;;;4992892;28;20910;-68
2021/12/19 05:54:16;;;;;;;33.00;20.53;;;7.40;99.90;;;;;;4992639;28;20908;-68
2021/12/19 05:56:43;;;;;;;32.83;19.53;;;7.30;99.90;;;;;;4992832;28;20190;-68
2021/12/19 05:59:10;;;;;;;29.67;18.83;;;7.30;99.90;;;;;;4992594;28;20172;-68
2021/12/19 06:01:38;;;;;;;34.03;24.00;;;7.40;99.90;;;;;;4990946;28;20416;-68
2021/12/19 06:04:04;;;;;;;29.17;20.30;;;7.30;99.90;;;;;;4993320;28;20218;-68
2021/12/19 06:06:29;;;;;;;27.00;17.47;;;7.30;99.90;;;;;;4992929;28;20501;-68
2021/12/19 06:08:55;;;;;;;25.20;17.00;;;7.30;99.90;;;;;;4992719;28;20165;-68
2021/12/19 06:11:20;;;;;;;22.70;14.37;;;7.20;99.90;;;;;;4991565;28;20175;-68
2021/12/19 06:13:46;;;;;;;17.50;12.00;;;7.10;99.90;;;;;;4992407;28;20207;-68
2021/12/19 06:16:12;;;;;;;16.40;11.80;;;6.90;99.90;;;;;;4991404;28;20212;-67
2021/12/19 06:18:37;;;;;;;15.23;10.63;;;7.00;99.90;;;;;;4991089;28;20183;-67
2021/12/19 06:21:04;;;;;;;17.23;11.00;;;7.00;99.90;;;;;;4991577;28;20187;-67
2021/12/19 06:23:30;;;;;;;15.87;10.70;;;6.90;99.90;;;;;;4991457;28;20200;-67
2021/12/19 06:25:56;;;;;;;14.27;10.10;;;6.90;99.90;;;;;;4991506;28;20407;-68
2021/12/19 06:28:22;;;;;;;16.80;10.37;;;6.80;99.90;;;;;;4991642;28;20428;-68
2021/12/19 06:30:48;;;;;;;15.63;10.77;;;6.80;99.90;;;;;;4991850;28;20215;-69
2021/12/19 06:33:14;;;;;;;18.60;11.13;;;6.80;99.90;;;;;;4990938;28;20848;-68
2021/12/19 06:35:40;;;;;;;18.03;11.30;;;6.80;99.90;;;;;;4992123;28;20251;-67
2021/12/19 06:38:06;;;;;;;15.97;11.27;;;6.90;99.90;;;;;;4998009;28;20419;-68
2021/12/19 06:40:33;;;;;;;17.57;11.37;;;6.90;99.90;;;;;;4992017;28;20422;-67
2021/12/19 06:42:58;;;;;;;21.30;12.60;;;6.90;99.90;;;;;;4992089;28;20545;-67
2021/12/19 06:45:24;;;;;;;23.10;13.90;;;6.90;99.90;;;;;;4995197;28;20435;-68
2021/12/19 06:47:50;;;;;;;17.63;12.60;;;6.90;99.90;;;;;;4995831;28;20191;-70
2021/12/19 06:50:17;;;;;;;19.77;13.27;;;7.00;99.90;;;;;;4995714;28;20180;-68
2021/12/19 06:52:44;;;;;;;23.40;13.97;;;6.90;99.90;;;;;;4996318;28;20411;-68
2021/12/19 06:55:12;;;;;;;19.17;13.17;;;7.00;99.90;;;;;;4996110;28;20510;-68
2021/12/19 06:57:39;;;;;;;25.03;15.37;;;7.00;99.90;;;;;;4995822;28;20442;-68
2021/12/19 07:00:07;;;;;;;21.93;14.47;;;7.00;99.90;;;;;;4995884;28;20415;-68
2021/12/19 07:02:33;;;;;;;23.83;15.20;;;7.00;99.90;;;;;;4994420;28;20237;-68
2021/12/19 07:04:59;;;;;;;24.13;14.70;;;7.00;99.90;;;;;;4994666;28;20435;-68
2021/12/19 07:07:25;;;;;;;22.47;16.20;;;7.00;99.90;;;;;;4995793;28;20415;-68
2021/12/19 07:09:50;;;;;;;29.13;16.43;;;6.90;99.90;;;;;;4995946;28;20168;-68
2021/12/19 07:12:17;;;;;;;24.47;14.60;;;6.90;99.90;;;;;;4999141;28;20255;-67
2021/12/19 07:14:43;;;;;;;27.83;16.70;;;6.90;99.90;;;;;;4999929;28;20184;-68
2021/12/19 07:17:10;;;;;;;25.63;16.60;;;7.00;99.90;;;;;;5006824;28;20399;-68
2021/12/19 07:19:35;;;;;;;24.60;15.70;;;7.10;99.90;;;;;;4995848;28;20453;-68
2021/12/19 07:22:01;;;;;;;27.10;17.27;;;7.10;99.90;;;;;;4995650;28;20505;-68
2021/12/19 07:24:26;;;;;;;27.83;15.93;;;7.00;99.90;;;;;;4995552;28;20310;-68
2021/12/19 07:26:52;;;;;;;27.57;15.17;;;7.00;99.90;;;;;;4995414;28;20174;-68
2021/12/19 07:29:17;;;;;;;25.80;16.17;;;7.20;99.90;;;;;;4995984;28;20252;-68
2021/12/19 07:31:43;;;;;;;26.60;15.83;;;7.30;99.90;;;;;;4995753;28;20634;-67
2021/12/19 07:34:09;;;;;;;26.57;17.47;;;7.20;99.90;;;;;;4993570;28;20196;-67
2021/12/19 07:36:50;;;;;;;30.40;18.60;;;7.10;99.90;;;;;;4995394;28;20412;-67
2021/12/19 07:39:38;;;;;;;32.47;17.93;;;7.10;99.90;;;;;;4994944;28;20188;-68
2021/12/19 07:42:06;;;;;;;32.87;18.57;;;7.00;99.90;;;;;;4995377;28;20925;-68
2021/12/19 07:44:32;;;;;;;30.80;18.50;;;6.90;99.90;;;;;;4994527;28;20467;-68
2021/12/19 07:46:57;;;;;;;31.67;18.77;;;6.80;99.90;;;;;;4994712;28;20438;-68
2021/12/19 07:49:23;;;;;;;30.40;18.03;;;6.90;99.90;;;;;;4995393;28;20178;-68
2021/12/19 07:51:49;;;;;;;29.20;17.20;;;6.90;99.90;;;;;;4994768;28;20176;-68
2021/12/19 07:54:14;;;;;;;34.10;19.67;;;6.80;99.90;;;;;;4993892;28;20238;-67
2021/12/19 07:56:40;;;;;;;30.20;17.83;;;6.70;99.90;;;;;;4994024;28;20182;-68
2021/12/19 07:59:06;;;;;;;37.10;19.70;;;6.80;99.90;;;;;;4995316;28;20246;-68
2021/12/19 08:01:32;;;;;;;32.50;18.53;;;6.70;99.90;;;;;;5002033;28;20206;-68
2021/12/19 08:03:57;;;;;;;30.53;18.83;;;6.90;99.90;;;;;;5003786;28;20479;-67
2021/12/19 08:06:23;;;;;;;31.40;18.80;;;6.80;99.90;;;;;;4994533;28;20434;-68
2021/12/19 08:08:52;;;;;;;29.47;18.27;;;6.80;99.90;;;;;;5001196;28;20179;-68
2021/12/19 08:14:04;;;;;;;29.70;17.33;;;6.90;99.90;;;;;;4998382;28;20501;-67
2021/12/19 08:16:29;;;;;;;27.83;16.67;;;6.80;99.90;;;;;;4994365;28;20503;-67
2021/12/19 08:18:55;;;;;;;30.80;18.70;;;6.90;99.90;;;;;;4995292;28;20428;-67
2021/12/19 08:21:21;;;;;;;27.73;17.67;;;7.10;99.90;;;;;;4995834;28;20164;-68
2021/12/19 08:23:46;;;;;;;29.50;16.47;;;7.20;99.90;;;;;;4996816;28;20220;-69
2021/12/19 08:26:12;;;;;;;25.87;15.63;;;7.20;99.90;;;;;;4987482;28;20192;-68
2021/12/19 08:28:38;;;;;;;20.00;13.70;;;7.10;99.90;;;;;;4991872;28;20438;-68
2021/12/19 08:31:04;;;;;;;31.30;15.53;;;7.00;99.90;;;;;;4991206;28;20719;-69
2021/12/19 08:33:29;;;;;;;27.57;15.43;;;6.90;99.90;;;;;;4991455;28;20494;-67
2021/12/19 08:35:55;;;;;;;24.30;14.00;;;6.90;99.90;;;;;;4992025;28;20192;-68
2021/12/19 08:38:21;;;;;;;24.10;15.03;;;6.80;99.90;;;;;;4991340;28;20198;-68
2021/12/19 08:40:49;;;;;;;24.07;13.33;;;6.80;99.90;;;;;;4989976;28;20222;-68
2021/12/19 08:43:14;;;;;;;22.07;13.23;;;6.80;99.90;;;;;;4993249;28;20262;-68
2021/12/19 08:45:40;;;;;;;26.50;14.60;;;6.80;99.90;;;;;;4994967;28;20495;-68
2021/12/19 08:48:06;;;;;;;25.00;13.87;;;6.90;99.90;;;;;;4990697;28;20571;-67
2021/12/19 08:50:32;;;;;;;20.73;13.33;;;6.90;99.90;;;;;;4989930;28;20463;-67
2021/12/19 08:52:58;;;;;;;23.73;14.87;;;7.00;99.90;;;;;;4990353;28;20281;-67
2021/12/19 08:55:23;;;;;;;21.40;13.57;;;7.10;99.90;;;;;;4990582;28;20455;-68
2021/12/19 08:57:49;;;;;;;21.20;13.17;;;7.20;99.90;;;;;;4989510;28;20678;-67
2021/12/19 09:00:17;;;;;;;21.33;13.83;;;7.40;99.90;;;;;;4990927;28;20220;-67
2021/12/19 09:02:46;;;;;;;22.63;15.40;;;7.50;99.90;;;;;;4990931;28;20263;-68
2021/12/19 09:05:11;;;;;;;21.37;13.07;;;7.40;99.90;;;;;;4990890;28;20475;-68
2021/12/19 09:07:37;;;;;;;19.30;12.73;;;7.40;99.90;;;;;;4991330;28;20509;-68
2021/12/19 09:10:05;;;;;;;17.37;12.43;;;7.50;99.90;;;;;;4991840;28;20230;-68
2021/12/19 09:12:30;;;;;;;17.97;11.00;;;7.50;99.90;;;;;;4990923;28;20239;-67
2021/12/19 09:14:56;;;;;;;19.50;12.47;;;7.40;99.90;;;;;;4988970;28;20452;-68
2021/12/19 09:17:22;;;;;;;19.60;11.43;;;7.20;99.90;;;;;;4990775;28;20243;-69
2021/12/19 09:19:48;;;;;;;19.60;12.87;;;7.10;99.90;;;;;;4989536;28;20866;-68
2021/12/19 09:22:13;;;;;;;19.67;11.50;;;7.00;99.90;;;;;;4991666;28;20231;-68
2021/12/19 09:24:39;;;;;;;25.00;12.63;;;7.00;99.90;;;;;;4989182;28;20223;-68
2021/12/19 09:27:07;;;;;;;18.07;12.30;;;7.00;99.90;;;;;;4990097;28;20204;-68
2021/12/19 09:29:33;;;;;;;19.97;12.43;;;6.90;99.90;;;;;;4992103;28;20226;-68
2021/12/19 09:31:59;;;;;;;17.10;11.70;;;7.00;99.90;;;;;;4992311;28;20523;-68
2021/12/19 09:34:28;;;;;;;16.60;10.90;;;7.10;99.90;;;;;;4991429;28;20200;-68
2021/12/19 09:36:55;;;;;;;17.10;11.57;;;7.10;99.90;;;;;;4991989;28;20894;-68
2021/12/19 09:39:22;;;;;;;16.93;11.37;;;7.20;99.90;;;;;;4992453;28;20455;-69
2021/12/19 09:41:54;;;;;;;17.70;11.57;;;7.40;99.90;;;;;;4994030;28;20474;-69
2021/12/19 09:44:21;;;;;;;15.03;10.60;;;7.40;99.90;;;;;;4996009;28;20471;-68
2021/12/19 09:46:47;;;;;;;13.53;9.27;;;7.50;99.90;;;;;;4993051;28;20447;-69
2021/12/19 09:49:15;;;;;;;17.97;11.47;;;7.60;99.90;;;;;;5001065;28;20468;-69
2021/12/19 09:51:41;;;;;;;12.60;9.67;;;7.80;99.90;;;;;;5005155;28;20447;-70
2021/12/19 09:54:08;;;;;;;15.43;11.60;;;7.80;99.90;;;;;;5012587;28;20470;-68
2021/12/19 09:56:34;;;;;;;16.50;11.63;;;7.90;99.90;;;;;;5007661;28;20443;-68
2021/12/19 09:59:01;;;;;;;15.63;10.10;;;7.80;99.90;;;;;;4990335;28;20519;-68
2021/12/19 10:01:27;;;;;;;12.40;9.17;;;7.70;99.90;;;;;;4990004;28;20242;-67
2021/12/19 10:03:53;;;;;;;12.73;8.30;;;7.80;99.90;;;;;;4989609;28;20478;-68
2021/12/19 10:06:24;;;;;;;12.80;9.47;;;8.00;99.90;;;;;;4983319;28;20929;-67
2021/12/19 10:09:10;;;;;;;11.53;7.50;;;8.00;99.90;;;;;;4986526;28;20188;-67
2021/12/19 10:12:11;;;;;;;12.73;8.07;;;7.80;99.90;;;;;;4984709;28;20419;-67
2021/12/19 10:14:32;;;;;;;13.07;8.63;;;7.80;99.90;;;;;;4998166;28;20444;-67
2021/12/19 10:17:03;;;;;;;14.50;9.20;;;7.50;99.90;;;;;;4990502;28;20439;-67
2021/12/19 10:19:49;;;;;;;13.80;9.43;;;7.40;99.90;;;;;;4988373;28;20426;-67
2021/12/19 10:22:30;;;;;;;16.60;10.60;;;7.40;99.90;;;;;;4988824;28;20427;-68
2021/12/19 10:24:58;;;;;;;14.60;9.30;;;7.50;99.90;;;;;;4989902;28;21088;-68
2021/12/19 10:27:35;;;;;;;16.03;10.70;;;7.70;99.90;;;;;;4989298;28;20427;-67
2021/12/19 10:30:00;;;;;;;15.00;9.70;;;7.70;99.90;;;;;;4991088;28;20423;-67
2021/12/19 10:32:27;;;;;;;13.63;9.73;;;7.60;99.90;;;;;;5015688;23;20586;-71
2021/12/19 10:35:16;;;;;;;15.63;11.17;;;7.50;99.90;;;;;;4999001;28;20177;-70
2021/12/19 10:37:43;;;;;;;16.13;11.17;;;7.40;99.90;;;;;;4990415;28;20416;-69
2021/12/19 10:40:09;;;;;;;17.70;11.20;;;7.50;99.90;;;;;;4998156;28;20407;-70
2021/12/19 10:42:49;;;;;;;18.40;11.30;;;7.50;99.90;;;;;;5009682;28;20419;-69
2021/12/19 10:45:31;;;;;;;18.73;11.77;;;7.60;99.90;;;;;;5009394;28;20417;-70
2021/12/19 10:48:11;;;;;;;19.20;12.73;;;7.50;99.90;;;;;;5012007;28;20521;-70
2021/12/19 10:50:44;;;;;;;19.87;12.90;;;7.50;99.90;;;;;;5003993;28;20419;-72
2021/12/19 10:53:09;;;;;;;19.53;12.37;;;7.60;99.90;;;;;;4991943;28;20904;-70
2021/12/19 10:55:35;;;;;;;19.80;12.40;;;7.50;99.90;;;;;;4974427;28;20474;-70
2021/12/19 10:58:01;;;;;;;24.97;13.40;;;7.40;99.90;;;;;;4991899;28;20214;-71
2021/12/19 11:00:28;;;;;;;22.13;13.23;;;7.40;99.90;;;;;;4993139;28;20908;-71
2021/12/19 11:02:54;;;;;;;18.00;11.20;;;7.50;99.90;;;;;;4991280;28;20342;-70
2021/12/19 11:05:42;;;;;;;18.40;11.83;;;7.50;99.90;;;;;;4993562;28;20435;-71
2021/12/19 11:08:09;;;;;;;22.63;12.67;;;7.50;99.90;;;;;;4994115;28;20183;-71
2021/12/19 11:10:37;;;;;;;16.77;10.67;;;7.30;99.90;;;;;;4993714;28;20416;-70
2021/12/19 11:13:08;;;;;;;19.53;12.27;;;7.20;99.90;;;;;;5009857;28;20442;-70
2021/12/19 11:15:34;;;;;;;18.03;11.53;;;7.20;99.90;;;;;;4995550;28;20802;-71
2021/12/19 11:17:59;;;;;;;20.97;13.10;;;7.20;99.90;;;;;;5013180;28;20505;-69
2021/12/19 11:20:25;;;;;;;21.77;13.20;;;7.20;99.90;;;;;;5013216;28;20426;-69
2021/12/19 11:22:50;;;;;;;16.60;11.00;;;7.30;99.90;;;;;;5004241;28;20704;-69
2021/12/19 11:25:16;;;;;;;21.30;13.10;;;7.30;99.90;;;;;;4993143;28;20172;-69
2021/12/19 11:27:43;;;;;;;25.00;15.50;;;7.30;99.90;;;;;;4992927;28;20180;-70
2021/12/19 11:30:10;;;;;;;26.47;15.73;;;7.40;99.90;;;;;;4991771;28;20177;-69
2021/12/19 11:33:03;;;;;;;26.97;16.70;;;7.40;99.90;;;;;;4996733;28;20454;-71
2021/12/19 11:35:31;;;;;;;31.63;18.57;;;7.30;99.90;;;;;;4979462;28;20419;-69
2021/12/19 11:38:04;;;;;;;29.77;17.07;;;7.20;99.90;;;;;;4996463;28;20412;-71
2021/12/19 11:40:32;;;;;;;28.00;17.20;;;7.30;99.90;;;;;;4996606;28;20419;-71
2021/12/19 11:43:06;;;;;;;29.23;17.57;;;7.20;99.90;;;;;;4995876;28;20455;-71
2021/12/19 11:45:37;;;;;;;28.33;17.67;;;7.30;99.90;;;;;;4976657;28;20397;-70
2021/12/19 11:48:27;;;;;;;28.33;18.40;;;7.40;99.90;;;;;;4977011;28;20404;-71
2021/12/19 11:50:57;;;;;;;26.83;18.87;;;7.40;99.90;;;;;;4977009;28;20738;-70
2021/12/19 11:53:27;;;;;;;31.07;21.50;;;7.20;99.90;;;;;;4976747;28;20432;-72
2021/12/19 11:55:56;;;;;;;27.00;19.93;;;7.20;99.90;;;;;;4997588;28;20439;-71
2021/12/19 11:58:28;;;;;;;30.07;21.10;;;7.20;99.90;;;;;;4996904;28;20422;-70
2021/12/19 12:01:04;;;;;;;29.13;20.50;;;7.10;99.90;;;;;;4992780;28;20533;-71
2021/12/19 12:03:38;;;;;;;34.23;21.50;;;7.10;99.90;;;;;;4995750;28;20454;-70
2021/12/19 12:06:23;;;;;;;30.03;19.63;;;7.10;99.90;;;;;;5010352;28;20424;-69
2021/12/19 12:09:22;;;;;;;33.67;21.67;;;7.10;99.90;;;;;;5016021;28;20398;-70
2021/12/19 12:12:00;;;;;;;28.97;19.53;;;7.00;99.90;;;;;;5016098;28;20465;-70
2021/12/19 12:14:34;;;;;;;28.50;17.37;;;7.00;99.90;;;;;;5016621;28;20843;-69
2021/12/19 12:17:08;;;;;;;27.10;18.33;;;7.00;99.90;;;;;;5013465;28;20418;-70
2021/12/19 12:19:52;;;;;;;30.63;18.97;;;7.10;99.90;;;;;;5015336;28;20493;-70
2021/12/19 12:25:09;;;;;;;27.20;18.83;;;7.10;99.90;;;;;;4995451;28;20455;-70
2021/12/19 12:27:40;;;;;;;26.70;16.97;;;7.20;99.90;;;;;;4993932;28;20419;-69
2021/12/19 12:30:13;;;;;;;25.87;16.30;;;7.20;99.90;;;;;;4995720;28;20757;-70
2021/12/19 12:32:39;;;;;;;21.23;13.77;;;7.20;99.90;;;;;;4995514;28;20446;-69
2021/12/19 12:35:07;;;;;;;18.20;12.10;;;7.00;99.90;;;;;;4995091;28;20533;-70
2021/12/19 12:37:33;;;;;;;15.60;10.80;;;6.90;99.90;;;;;;4995401;28;20931;-70
2021/12/19 12:40:31;;;;;;;15.60;9.40;;;6.90;99.90;;;;;;4995784;28;20495;-71
2021/12/19 12:43:09;;;;;;;9.97;7.07;;;6.90;99.90;;;;;;4953108;28;20221;-70
2021/12/19 12:46:00;;;;;;;12.00;7.57;;;6.90;99.90;;;;;;4954279;29;20401;-70
2021/12/19 12:48:27;;;;;;;10.57;7.40;;;6.90;99.90;;;;;;4954336;29;20813;-70
2021/12/19 12:50:52;;;;;;;10.20;7.33;;;6.80;99.90;;;;;;4953920;29;20432;-69
2021/12/19 12:53:30;;;;;;;10.53;7.43;;;6.90;99.90;;;;;;4952850;29;20493;-70
2021/12/19 12:56:09;;;;;;;11.60;7.50;;;6.90;99.90;;;;;;4939084;29;20194;-69
2021/12/19 12:58:41;;;;;;;8.10;5.57;;;6.80;99.90;;;;;;4932863;29;20433;-70
2021/12/19 13:01:13;;;;;;;8.83;6.50;;;6.80;99.90;;;;;;4940340;29;20528;-69
2021/12/19 13:03:38;;;;;;;9.00;6.80;;;6.80;99.90;;;;;;4949681;29;20506;-68
2021/12/19 13:06:04;;;;;;;9.47;7.03;;;6.80;99.90;;;;;;4930203;29;20580;-71
2021/12/19 13:08:29;;;;;;;8.70;7.30;;;6.80;99.90;;;;;;4930666;29;20261;-71
2021/12/19 13:10:55;;;;;;;7.07;5.03;;;6.90;99.90;;;;;;4930778;29;20265;-70
2021/12/19 13:13:25;;;;;;;4.87;4.07;;;6.90;99.90;;;;;;4934445;29;20391;-70
2021/12/19 13:15:51;;;;;;;5.57;4.60;;;6.80;99.90;;;;;;4934905;29;20716;-70
2021/12/19 13:18:16;;;;;;;6.47;4.97;;;6.80;99.90;;;;;;4938407;28;20510;-71
2021/12/19 13:20:42;;;;;;;6.20;3.47;;;6.90;99.90;;;;;;5000823;28;20160;-71
2021/12/19 13:23:07;;;;;;;6.20;4.50;;;7.00;99.90;;;;;;4985205;28;20215;-69
2021/12/19 13:25:40;;;;;;;5.80;4.60;;;7.00;99.90;;;;;;4989324;28;20237;-71
2021/12/19 13:28:11;;;;;;;6.50;4.80;;;7.00;99.90;;;;;;4991241;28;20742;-69
2021/12/19 13:30:42;;;;;;;10.63;7.00;;;7.00;99.90;;;;;;4989809;28;20426;-72
2021/12/19 13:33:18;;;;;;;10.57;8.13;;;7.00;99.90;;;;;;4990662;28;20517;-71
2021/12/19 13:35:51;;;;;;;14.93;9.40;;;7.00;99.90;;;;;;4991288;28;20423;-69
2021/12/19 13:38:18;;;;;;;14.20;10.30;;;7.10;99.90;;;;;;5007887;28;20411;-71
2021/12/19 13:40:49;;;;;;;13.53;9.87;;;7.20;99.90;;;;;;5002661;28;20440;-70
2021/12/19 13:43:19;;;;;;;15.93;11.77;;;7.20;99.90;;;;;;5007953;28;20454;-70
2021/12/19 13:45:56;;;;;;;15.63;10.50;;;7.10;99.90;;;;;;5005704;28;20423;-70
2021/12/19 13:48:40;;;;;;;10.37;7.63;;;7.20;99.90;;;;;;5006659;28;20427;-70
2021/12/19 13:51:12;;;;;;;10.20;7.30;;;7.30;99.90;;;;;;5007132;28;20395;-69
2021/12/19 13:53:42;;;;;;;11.30;7.57;;;7.20;99.90;;;;;;5006126;28;20800;-69